createdAt,value
2018-11-12T00:00:16.001Z,8.30
2018-11-12T00:02:50.329Z,8.30
2018-11-12T00:05:21.152Z,8.30
2018-11-12T00:07:52.037Z,8.30
2018-11-12T00:13:30.338Z,8.20
2018-11-12T00:16:01.158Z,8.20
2018-11-12T00:18:32.320Z,8.20
2018-11-12T00:21:03.210Z,8.20
2018-11-12T00:23:34.121Z,8.10
2018-11-12T00:26:05.291Z,8.10
2018-11-12T00:28:36.258Z,8.10
2018-11-12T00:31:07.048Z,8.20
2018-11-12T00:33:37.813Z,8.20
2018-11-12T00:36:09.161Z,8.20
2018-11-12T00:38:40.085Z,8.20
2018-11-12T00:41:11.030Z,8.20
2018-11-12T00:43:41.660Z,8.20
2018-11-12T00:46:12.776Z,8.20
2018-11-12T00:48:43.813Z,8.30
2018-11-12T00:51:14.736Z,8.30
2018-11-12T00:53:45.644Z,8.30
2018-11-12T00:56:16.382Z,8.40
2018-11-12T00:58:47.268Z,8.40
2018-11-12T01:01:18.172Z,8.40
2018-11-12T01:03:48.961Z,8.40
2018-11-12T01:06:20.022Z,8.50
2018-11-12T01:09:01.338Z,8.50
2018-11-12T01:11:32.159Z,8.50
2018-11-12T01:14:02.980Z,8.40
2018-11-12T01:16:33.857Z,8.40
2018-11-12T01:19:06.019Z,8.30
2018-11-12T01:21:36.777Z,8.30
2018-11-12T01:24:09.159Z,8.30
2018-11-12T01:26:41.193Z,8.20
2018-11-12T01:29:12.811Z,8.20
2018-11-12T01:31:43.892Z,8.20
2018-11-12T01:34:14.947Z,8.10
2018-11-12T01:36:45.726Z,8.20
2018-11-12T01:39:16.851Z,8.20
2018-11-12T01:41:47.903Z,8.10
2018-11-12T01:44:19.124Z,8.20
2018-11-12T01:46:49.789Z,8.10
2018-11-12T01:49:20.766Z,8.10
2018-11-12T01:51:51.808Z,8.10
2018-11-12T01:54:22.878Z,8.10
2018-11-12T01:56:53.755Z,8.10
2018-11-12T01:59:24.468Z,8.20
2018-11-12T02:01:55.425Z,8.20
2018-11-12T02:04:26.474Z,8.30
2018-11-12T02:06:57.409Z,8.30
2018-11-12T02:09:28.300Z,8.30
2018-11-12T02:12:17.478Z,8.30
2018-11-12T02:14:55.042Z,8.20
2018-11-12T02:17:26.118Z,8.20
2018-11-12T02:19:56.921Z,8.10
2018-11-12T02:22:28.048Z,8.00
2018-11-12T02:24:58.977Z,8.00
2018-11-12T02:27:29.829Z,8.00
2018-11-12T02:30:16.820Z,8.10
2018-11-12T02:32:47.656Z,8.00
2018-11-12T02:35:18.698Z,8.00
2018-11-12T02:37:49.402Z,8.20
2018-11-12T02:40:20.629Z,8.30
2018-11-12T02:42:54.583Z,8.40
2018-11-12T02:45:26.490Z,8.50
2018-11-12T02:47:57.569Z,8.50
2018-11-12T02:50:28.369Z,8.40
2018-11-12T02:52:59.044Z,8.40
2018-11-12T02:55:30.363Z,8.30
2018-11-12T02:58:01.306Z,8.20
2018-11-12T03:00:32.421Z,8.20
2018-11-12T03:03:03.444Z,8.20
2018-11-12T03:05:34.368Z,8.10
2018-11-12T03:08:05.615Z,8.10
2018-11-12T03:10:36.681Z,8.10
2018-11-12T03:13:07.794Z,8.10
2018-11-12T03:15:38.777Z,8.00
2018-11-12T03:18:09.773Z,8.10
2018-11-12T03:20:40.745Z,8.10
2018-11-12T03:23:12.945Z,8.10
2018-11-12T03:25:43.996Z,8.10
2018-11-12T03:28:14.764Z,8.10
2018-11-12T03:30:45.784Z,8.10
2018-11-12T03:33:16.789Z,8.20
2018-11-12T03:35:47.884Z,8.10
2018-11-12T03:38:18.818Z,8.10
2018-11-12T03:40:50.000Z,8.10
2018-11-12T03:43:20.686Z,8.00
2018-11-12T03:45:51.920Z,8.00
2018-11-12T03:48:22.781Z,7.90
2018-11-12T03:50:54.494Z,7.90
2018-11-12T03:53:25.868Z,7.90
2018-11-12T03:55:58.183Z,7.90
2018-11-12T03:58:28.982Z,7.90
2018-11-12T04:00:59.805Z,7.90
2018-11-12T04:03:30.578Z,7.80
2018-11-12T04:06:01.618Z,7.90
2018-11-12T04:08:32.476Z,7.80
2018-11-12T04:11:03.454Z,7.60
2018-11-12T04:16:44.509Z,7.70
2018-11-12T04:19:15.317Z,7.70
2018-11-12T04:21:46.188Z,7.60
2018-11-12T04:24:16.908Z,7.60
2018-11-12T04:26:48.218Z,7.50
2018-11-12T04:29:19.412Z,7.50
2018-11-12T04:31:56.236Z,7.50
2018-11-12T04:34:27.362Z,7.50
2018-11-12T04:36:58.260Z,7.60
2018-11-12T04:39:28.891Z,7.60
2018-11-12T04:41:59.712Z,7.60
2018-11-12T04:44:30.658Z,7.60
2018-11-12T04:47:02.196Z,7.60
2018-11-12T04:49:33.318Z,7.60
2018-11-12T04:52:04.613Z,7.60
2018-11-12T04:54:35.681Z,7.50
2018-11-12T04:57:07.362Z,7.60
2018-11-12T04:59:38.298Z,7.60
2018-11-12T05:02:09.517Z,7.50
2018-11-12T05:04:40.507Z,7.50
2018-11-12T05:07:11.354Z,7.50
2018-11-12T05:09:42.166Z,7.60
2018-11-12T05:12:13.263Z,7.70
2018-11-12T05:14:54.495Z,7.80
2018-11-12T05:17:25.512Z,7.80
2018-11-12T05:19:56.174Z,7.80
2018-11-12T05:22:33.282Z,7.80
2018-11-12T05:25:04.220Z,7.90
2018-11-12T05:27:35.201Z,7.90
2018-11-12T05:30:09.177Z,7.90
2018-11-12T05:32:40.292Z,7.90
2018-11-12T05:35:11.722Z,7.90
2018-11-12T05:37:43.639Z,7.90
2018-11-12T05:40:16.250Z,7.90
2018-11-12T05:42:48.684Z,8.00
2018-11-12T05:45:21.640Z,8.00
2018-11-12T05:47:52.856Z,8.00
2018-11-12T05:50:25.816Z,7.90
2018-11-12T05:53:03.472Z,8.00
2018-11-12T05:55:35.448Z,8.10
2018-11-12T05:58:06.993Z,8.10
2018-11-12T06:00:38.160Z,8.00
2018-11-12T06:03:09.290Z,7.90
2018-11-12T06:05:40.112Z,7.90
2018-11-12T06:08:11.295Z,7.90
2018-11-12T06:10:42.356Z,8.00
2018-11-12T06:13:14.364Z,8.00
2018-11-12T06:15:46.720Z,7.90
2018-11-12T06:18:19.757Z,7.90
2018-11-12T06:20:50.738Z,7.90
2018-11-12T06:23:21.958Z,8.00
2018-11-12T06:25:52.894Z,8.20
2018-11-12T06:28:24.593Z,8.30
2018-11-12T06:30:55.213Z,8.40
2018-11-12T06:33:26.229Z,8.50
2018-11-12T06:35:57.200Z,8.70
2018-11-12T06:38:28.114Z,8.80
2018-11-12T06:40:59.810Z,8.80
2018-11-12T06:43:32.133Z,8.90
2018-11-12T06:46:02.615Z,9.00
2018-11-12T06:48:33.401Z,9.20
2018-11-12T06:52:29.853Z,9.40
2018-11-12T06:55:00.782Z,9.50
2018-11-12T06:57:31.455Z,9.70
2018-11-12T07:00:02.257Z,9.70
2018-11-12T07:02:37.016Z,9.80
2018-11-12T07:05:09.832Z,10.00
2018-11-12T07:07:41.080Z,10.70
2018-11-12T07:10:16.927Z,11.10
2018-11-12T07:12:52.664Z,11.40
2018-11-12T07:15:27.068Z,11.60
2018-11-12T07:17:58.790Z,12.00
2018-11-12T07:20:33.448Z,12.30
2018-11-12T07:23:08.280Z,12.30
2018-11-12T07:25:38.965Z,12.10
2018-11-12T07:28:09.546Z,11.90
2018-11-12T07:30:46.880Z,11.90
2018-11-12T07:33:17.578Z,12.00
2018-11-12T07:35:49.914Z,12.10
2018-11-12T07:38:20.639Z,12.40
2018-11-12T07:40:51.454Z,12.70
2018-11-12T07:43:22.380Z,12.90
2018-11-12T07:45:54.200Z,12.80
2018-11-12T07:48:25.593Z,12.70
2018-11-12T07:50:56.187Z,12.80
2018-11-12T07:53:27.197Z,12.90
2018-11-12T07:55:57.883Z,13.00
2018-11-12T07:58:28.464Z,13.00
2018-11-12T08:01:00.114Z,13.00
2018-11-12T08:03:30.858Z,13.00
2018-11-12T08:06:02.216Z,12.90
2018-11-12T08:08:32.997Z,13.10
2018-11-12T08:11:04.994Z,13.20
2018-11-12T08:13:35.994Z,13.20
2018-11-12T08:16:07.040Z,13.10
2018-11-12T08:24:59.867Z,13.40
2018-11-12T08:27:32.306Z,13.30
2018-11-12T08:30:03.113Z,13.40
2018-11-12T08:32:34.236Z,13.50
2018-11-12T08:35:16.735Z,13.50
2018-11-12T08:37:47.859Z,13.70
2018-11-12T08:40:22.366Z,13.80
2018-11-12T08:45:33.261Z,14.10
2018-11-12T08:48:04.457Z,14.30
2018-11-12T08:50:35.260Z,14.30
2018-11-12T08:53:06.276Z,14.30
2018-11-12T08:55:37.156Z,14.40
2018-11-12T08:58:12.701Z,14.40
2018-11-12T09:00:43.083Z,14.40
2018-11-12T09:03:14.893Z,14.40
2018-11-12T09:05:45.801Z,14.40
2018-11-12T09:08:16.639Z,14.40
2018-11-12T09:10:47.332Z,14.30
2018-11-12T09:13:18.337Z,14.40
2018-11-12T09:15:49.133Z,14.50
2018-11-12T09:18:19.706Z,14.60
2018-11-12T09:20:51.375Z,14.70
2018-11-12T09:23:22.029Z,14.70
2018-11-12T09:25:52.732Z,14.60
2018-11-12T09:28:23.875Z,14.60
2018-11-12T09:30:57.590Z,14.60
2018-11-12T09:33:27.040Z,14.60
2018-11-12T09:35:58.034Z,14.60
2018-11-12T09:38:29.509Z,14.60
2018-11-12T09:41:00.614Z,14.60
2018-11-12T09:43:31.363Z,14.50
2018-11-12T09:46:02.039Z,14.50
2018-11-12T09:48:33.101Z,14.60
2018-11-12T09:51:03.853Z,14.80
2018-11-12T09:53:34.462Z,14.80
2018-11-12T09:56:05.099Z,15.00
2018-11-12T09:58:36.161Z,15.40
2018-11-12T10:01:15.196Z,15.40
2018-11-12T10:03:47.519Z,15.70
2018-11-12T10:06:18.744Z,16.00
2018-11-12T10:08:50.812Z,16.00
2018-11-12T10:11:23.258Z,16.10
2018-11-12T10:13:53.260Z,16.30
2018-11-12T10:16:24.965Z,16.50
2018-11-12T10:18:53.747Z,16.70
2018-11-12T10:21:24.604Z,16.70
2018-11-12T10:23:56.499Z,16.90
2018-11-12T10:26:27.345Z,16.70
2018-11-12T10:28:57.988Z,16.60
2018-11-12T10:31:29.426Z,16.70
2018-11-12T10:34:00.150Z,16.80
2018-11-12T10:36:31.209Z,16.90
2018-11-12T10:39:03.225Z,17.10
2018-11-12T10:41:34.180Z,17.40
2018-11-12T10:44:05.676Z,17.40
2018-11-12T10:46:36.348Z,17.40
2018-11-12T10:49:07.850Z,17.30
2018-11-12T10:51:39.053Z,17.30
2018-11-12T10:54:10.207Z,16.90
2018-11-12T10:56:40.757Z,16.80
2018-11-12T10:59:11.963Z,16.70
2018-11-12T11:01:47.895Z,16.70
2018-11-12T11:04:22.957Z,16.70
2018-11-12T11:06:54.153Z,16.60
2018-11-12T11:09:24.857Z,16.50
2018-11-12T11:11:56.300Z,16.70
2018-11-12T11:14:27.010Z,16.80
2018-11-12T11:16:58.262Z,16.90
2018-11-12T11:19:30.936Z,16.80
2018-11-12T11:22:02.020Z,16.70
2018-11-12T11:24:32.655Z,16.60
2018-11-12T11:27:03.949Z,16.60
2018-11-12T11:29:34.705Z,16.50
2018-11-12T11:32:07.285Z,16.40
2018-11-12T11:34:38.706Z,16.50
2018-11-12T11:37:09.580Z,16.40
2018-11-12T11:39:41.093Z,16.30
2018-11-12T11:42:12.220Z,16.50
2018-11-12T11:44:43.179Z,16.40
2018-11-12T11:47:15.020Z,16.40
2018-11-12T11:49:45.724Z,16.30
2018-11-12T11:52:16.439Z,16.20
2018-11-12T11:54:47.492Z,16.10
2018-11-12T11:57:19.238Z,16.00
2018-11-12T11:59:50.093Z,15.90
2018-11-12T12:02:21.373Z,15.80
2018-11-12T12:04:56.089Z,15.80
2018-11-12T12:07:26.733Z,15.60
2018-11-12T12:10:02.627Z,15.60
2018-11-12T12:12:33.943Z,15.50
2018-11-12T12:15:05.485Z,15.60
2018-11-12T12:17:36.433Z,15.50
2018-11-12T12:20:10.882Z,15.60
2018-11-12T12:22:42.146Z,15.50
2018-11-12T12:25:14.021Z,15.40
2018-11-12T12:27:45.088Z,15.40
2018-11-12T12:30:19.240Z,15.40
2018-11-12T12:32:51.545Z,15.40
2018-11-12T12:35:22.494Z,15.40
2018-11-12T12:37:53.617Z,15.40
2018-11-12T12:40:25.009Z,15.40
2018-11-12T12:42:56.658Z,15.40
2018-11-12T12:48:34.810Z,15.40
2018-11-12T12:51:05.851Z,15.40
2018-11-12T12:53:37.057Z,15.40
2018-11-12T12:56:08.269Z,15.50
2018-11-12T12:58:40.018Z,15.50
2018-11-12T13:01:11.769Z,15.50
2018-11-12T13:03:42.812Z,15.50
2018-11-12T13:06:15.457Z,15.60
2018-11-12T13:08:46.102Z,15.70
2018-11-12T13:11:17.701Z,15.70
2018-11-12T13:13:48.760Z,15.70
2018-11-12T13:16:19.514Z,15.60
2018-11-12T13:18:50.781Z,15.60
2018-11-12T13:21:22.016Z,15.50
2018-11-12T13:23:53.599Z,15.50
2018-11-12T13:26:24.809Z,15.60
2018-11-12T13:28:57.224Z,15.60
2018-11-12T13:31:27.819Z,15.60
2018-11-12T13:33:59.550Z,15.50
2018-11-12T13:36:30.563Z,15.50
2018-11-12T13:39:01.377Z,15.50
2018-11-12T13:41:31.983Z,15.60
2018-11-12T13:44:02.896Z,15.50
2018-11-12T13:46:39.161Z,15.60
2018-11-12T13:49:10.396Z,15.50
2018-11-12T13:51:41.530Z,15.50
2018-11-12T13:54:12.345Z,15.60
2018-11-12T13:56:43.386Z,15.60
2018-11-12T13:59:14.081Z,15.50
2018-11-12T14:01:46.273Z,15.50
2018-11-12T14:04:17.436Z,15.40
2018-11-12T14:06:48.098Z,15.50
2018-11-12T14:09:18.680Z,15.50
2018-11-12T14:11:50.349Z,15.40
2018-11-12T14:14:21.333Z,15.40
2018-11-12T14:16:51.968Z,15.40
2018-11-12T14:19:22.994Z,15.30
2018-11-12T14:21:54.204Z,15.30
2018-11-12T14:24:25.088Z,15.30
2018-11-12T14:26:56.226Z,15.30
2018-11-12T14:29:26.918Z,15.30
2018-11-12T14:31:57.862Z,15.30
2018-11-12T14:34:28.711Z,15.30
2018-11-12T14:36:59.656Z,15.20
2018-11-12T14:39:30.666Z,15.10
2018-11-12T14:42:01.593Z,15.20
2018-11-12T14:44:32.198Z,15.20
2018-11-12T14:47:03.213Z,15.20
2018-11-12T14:49:34.217Z,15.20
2018-11-12T14:52:08.137Z,15.20
2018-11-12T14:54:38.792Z,15.20
2018-11-12T14:57:11.327Z,15.20
2018-11-12T14:59:45.586Z,15.10
2018-11-12T15:02:17.179Z,15.10
2018-11-12T15:04:49.104Z,15.10
2018-11-12T15:07:21.145Z,15.10
2018-11-12T15:09:52.473Z,15.10
2018-11-12T15:12:24.075Z,15.10
2018-11-12T15:14:55.788Z,15.10
2018-11-12T15:17:26.472Z,15.10
2018-11-12T15:19:58.660Z,15.10
2018-11-12T15:22:29.743Z,15.10
2018-11-12T15:25:01.966Z,15.10
2018-11-12T15:27:35.863Z,15.00
2018-11-12T15:30:12.044Z,15.00
2018-11-12T15:32:46.464Z,15.00
2018-11-12T15:35:22.540Z,15.00
2018-11-12T15:37:54.235Z,14.90
2018-11-12T15:40:25.986Z,15.00
2018-11-12T15:42:59.377Z,14.90
2018-11-12T15:45:34.064Z,14.90
2018-11-12T15:48:05.014Z,14.90
2018-11-12T15:50:37.919Z,14.90
2018-11-12T15:53:09.165Z,15.00
2018-11-12T15:55:42.863Z,15.00
2018-11-12T15:58:15.366Z,15.00
2018-11-12T16:00:47.136Z,15.00
2018-11-12T16:03:17.775Z,14.90
2018-11-12T16:05:51.931Z,15.00
2018-11-12T16:08:22.836Z,15.00
2018-11-12T16:10:56.151Z,15.00
2018-11-12T16:13:27.040Z,15.00
2018-11-12T16:15:58.364Z,15.10
2018-11-12T16:18:30.085Z,15.00
2018-11-12T16:21:03.537Z,15.00
2018-11-12T16:23:36.706Z,15.10
2018-11-12T16:26:07.705Z,15.00
2018-11-12T16:28:41.561Z,15.00
2018-11-12T16:31:13.747Z,15.00
2018-11-12T16:33:46.994Z,15.00
2018-11-12T16:36:17.960Z,15.00
2018-11-12T16:38:51.831Z,15.10
2018-11-12T16:41:25.265Z,15.10
2018-11-12T16:43:57.744Z,15.00
2018-11-12T16:46:29.947Z,15.00
2018-11-12T16:49:02.121Z,15.00
2018-11-12T16:51:32.924Z,15.00
2018-11-12T16:54:08.014Z,15.00
2018-11-12T16:56:40.094Z,15.00
2018-11-12T16:59:13.317Z,15.00
2018-11-12T17:01:48.629Z,15.00
2018-11-12T17:04:20.614Z,14.90
2018-11-12T17:06:53.047Z,15.00
2018-11-12T17:09:26.321Z,15.00
2018-11-12T17:11:58.148Z,15.00
2018-11-12T17:14:34.101Z,15.10
2018-11-12T17:17:04.845Z,15.10
2018-11-12T17:19:36.520Z,15.00
2018-11-12T17:22:08.623Z,15.00
2018-11-12T17:24:39.382Z,15.00
2018-11-12T17:27:11.644Z,14.90
2018-11-12T17:29:43.784Z,14.90
2018-11-12T17:32:16.114Z,15.00
2018-11-12T17:34:46.791Z,15.00
2018-11-12T17:37:19.054Z,14.90
2018-11-12T17:39:50.184Z,14.90
2018-11-12T17:42:20.803Z,14.90
2018-11-12T17:44:55.557Z,14.90
2018-11-12T17:47:27.074Z,14.90
2018-11-12T17:49:57.845Z,14.80
2018-11-12T17:52:29.885Z,14.80
2018-11-12T17:55:00.847Z,14.80
2018-11-12T17:57:31.668Z,14.80
2018-11-12T18:00:02.763Z,14.90
2018-11-12T18:02:34.034Z,14.90
2018-11-12T18:05:06.640Z,14.80
2018-11-12T18:07:38.191Z,14.70
2018-11-12T18:10:10.402Z,14.70
2018-11-12T18:12:43.795Z,14.70
2018-11-12T18:15:17.708Z,14.70
2018-11-12T18:17:48.756Z,14.60
2018-11-12T18:20:25.763Z,14.60
2018-11-12T18:22:57.457Z,14.60
2018-11-12T18:25:28.935Z,14.50
2018-11-12T18:27:59.742Z,14.50
2018-11-12T18:30:32.841Z,14.50
2018-11-12T18:33:04.482Z,14.40
2018-11-12T18:35:37.874Z,14.40
2018-11-12T18:38:09.263Z,14.40
2018-11-12T18:40:41.417Z,14.50
2018-11-12T18:43:12.285Z,14.50
2018-11-12T18:45:43.315Z,14.40
2018-11-12T18:48:15.437Z,14.40
2018-11-12T18:50:46.860Z,14.40
2018-11-12T18:53:17.591Z,14.40
2018-11-12T18:55:48.442Z,14.40
2018-11-12T18:58:19.442Z,14.40
2018-11-12T19:00:50.300Z,14.40
2018-11-12T19:03:21.482Z,14.40
2018-11-12T19:05:52.779Z,14.30
2018-11-12T19:08:23.790Z,14.30
2018-11-12T19:10:54.571Z,14.30
2018-11-12T19:13:25.594Z,14.30
2018-11-12T19:15:56.596Z,14.30
2018-11-12T19:18:27.488Z,14.30
2018-11-12T19:21:02.023Z,14.40
2018-11-12T19:23:34.400Z,14.50
2018-11-12T19:26:06.090Z,14.50
2018-11-12T19:28:36.836Z,14.50
2018-11-12T19:31:09.825Z,14.40
2018-11-12T19:33:41.008Z,14.30
2018-11-12T19:36:32.638Z,14.30
2018-11-12T19:39:08.058Z,14.40
2018-11-12T19:41:45.978Z,14.50
2018-11-12T19:44:16.716Z,14.40
2018-11-12T19:46:48.915Z,14.30
2018-11-12T19:49:20.749Z,14.20
2018-11-12T19:51:53.417Z,14.20
2018-11-12T19:54:24.721Z,14.30
2018-11-12T19:56:56.542Z,14.30
2018-11-12T19:59:27.325Z,14.20
2018-11-12T20:01:58.012Z,14.20
2018-11-12T20:04:30.009Z,14.10
2018-11-12T20:07:01.037Z,14.10
2018-11-12T20:09:31.551Z,14.00
2018-11-12T20:12:02.245Z,14.00
2018-11-12T20:14:33.195Z,13.90
2018-11-12T20:17:04.412Z,14.00
2018-11-12T20:19:36.936Z,14.00
2018-11-12T20:22:07.381Z,14.10
2018-11-12T20:24:38.990Z,14.20
2018-11-12T20:27:10.739Z,14.20
2018-11-12T20:29:41.262Z,14.10
2018-11-12T20:32:12.520Z,14.10
2018-11-12T20:34:43.327Z,14.00
2018-11-12T20:37:14.110Z,13.90
2018-11-12T20:39:45.910Z,13.90
2018-11-12T20:42:16.488Z,13.90
2018-11-12T20:44:48.841Z,13.80
2018-11-12T20:47:19.378Z,13.80
2018-11-12T20:49:50.457Z,13.80
2018-11-12T20:52:21.232Z,13.80
2018-11-12T20:54:52.338Z,13.80
2018-11-12T20:57:23.201Z,13.80
2018-11-12T20:59:53.944Z,13.70
2018-11-12T21:02:25.594Z,13.70
2018-11-12T21:05:01.259Z,13.60
2018-11-12T21:07:33.643Z,13.60
2018-11-12T21:10:07.568Z,13.60
2018-11-12T21:12:38.290Z,13.60
2018-11-12T21:15:13.632Z,13.60
2018-11-12T21:17:44.468Z,13.60
2018-11-12T21:20:16.906Z,13.50
2018-11-12T21:22:52.054Z,13.50
2018-11-12T21:25:24.933Z,13.50
2018-11-12T21:27:55.399Z,13.40
2018-11-12T21:30:29.427Z,13.40
2018-11-12T21:33:04.506Z,13.40
2018-11-12T21:35:35.637Z,13.40
2018-11-12T21:38:09.961Z,13.30
2018-11-12T21:40:41.510Z,13.40
2018-11-12T21:43:14.883Z,13.50
2018-11-12T21:45:49.789Z,13.50
2018-11-12T21:48:23.459Z,13.40
2018-11-12T21:50:55.586Z,13.40
2018-11-12T21:53:28.189Z,13.40
2018-11-12T21:55:59.213Z,13.40
2018-11-12T21:58:32.342Z,13.30
2018-11-12T22:01:05.972Z,13.30
2018-11-12T22:03:39.309Z,13.20
2018-11-12T22:06:10.323Z,13.20
2018-11-12T22:08:43.365Z,13.20
2018-11-12T22:11:21.872Z,13.10
2018-11-12T22:13:55.785Z,13.10
2018-11-12T22:16:27.355Z,13.00
2018-11-12T22:18:58.991Z,12.90
2018-11-12T22:21:30.964Z,12.90
2018-11-12T22:24:01.788Z,12.90
2018-11-12T22:26:34.967Z,12.80
2018-11-12T22:29:06.863Z,12.80
2018-11-12T22:31:38.242Z,12.80
2018-11-12T22:34:10.077Z,12.70
2018-11-12T22:36:43.301Z,12.60
2018-11-12T22:39:13.892Z,12.60
2018-11-12T22:41:44.841Z,12.60
2018-11-12T22:44:15.367Z,12.50
2018-11-12T22:46:46.025Z,12.50
2018-11-12T22:49:18.122Z,12.50
2018-11-12T22:54:58.453Z,12.40
2018-11-12T22:57:30.728Z,12.40
2018-11-12T23:00:02.480Z,12.40
2018-11-12T23:02:33.301Z,12.30
2018-11-12T23:05:05.886Z,12.30
2018-11-12T23:07:37.067Z,12.30
2018-11-12T23:10:10.033Z,12.30
2018-11-12T23:12:41.221Z,12.30
2018-11-12T23:15:12.644Z,12.20
2018-11-12T23:17:44.055Z,12.20
2018-11-12T23:20:21.110Z,12.20
2018-11-12T23:22:52.554Z,12.10
2018-11-12T23:25:23.570Z,12.10
2018-11-12T23:27:54.850Z,12.10
2018-11-12T23:30:25.880Z,12.10
2018-11-12T23:32:56.736Z,12.10
2018-11-12T23:35:27.456Z,12.10
2018-11-12T23:37:58.176Z,12.10
2018-11-12T23:40:29.168Z,12.00
2018-11-12T23:43:01.672Z,12.00
2018-11-12T23:45:32.819Z,12.00
2018-11-12T23:48:05.389Z,12.00
2018-11-12T23:50:36.088Z,12.00
2018-11-12T23:53:06.876Z,11.90
2018-11-12T23:55:37.708Z,11.90
2018-11-12T23:58:12.401Z,12.00
